createdAt,value
2017-07-08T00:00:25.092Z,0
2017-07-08T00:01:33.949Z,0
2017-07-08T00:02:43.136Z,0
2017-07-08T00:03:52.046Z,0
2017-07-08T00:05:01.313Z,0
2017-07-08T00:06:10.107Z,0
2017-07-08T00:07:18.965Z,0
2017-07-08T00:08:27.822Z,0
2017-07-08T00:09:36.931Z,0
2017-07-08T00:10:45.795Z,0
2017-07-08T00:11:54.649Z,0
2017-07-08T00:13:03.506Z,0
2017-07-08T00:14:12.361Z,0
2017-07-08T00:15:21.367Z,0
2017-07-08T00:16:30.226Z,0
2017-07-08T00:17:39.083Z,0
2017-07-08T00:18:47.940Z,0
2017-07-08T00:19:56.795Z,0
2017-07-08T00:21:06.151Z,0
2017-07-08T00:22:15.008Z,0
2017-07-08T00:23:23.867Z,0
2017-07-08T00:24:32.726Z,0
2017-07-08T00:25:41.582Z,0
2017-07-08T00:26:50.590Z,0
2017-07-08T00:27:59.449Z,0
2017-07-08T00:29:08.306Z,0
2017-07-08T00:30:17.164Z,0
2017-07-08T00:31:26.021Z,0
2017-07-08T00:32:34.927Z,0
2017-07-08T00:33:43.784Z,0
2017-07-08T00:34:52.641Z,0
2017-07-08T00:36:01.494Z,0
2017-07-08T00:37:10.354Z,0
2017-07-08T00:38:19.310Z,0
2017-07-08T00:39:28.502Z,0
2017-07-08T00:40:37.357Z,0
2017-07-08T00:41:46.214Z,0
2017-07-08T00:42:55.071Z,0
2017-07-08T00:44:04.026Z,0
2017-07-08T00:45:12.884Z,0
2017-07-08T00:46:21.741Z,0
2017-07-08T00:47:30.600Z,0
2017-07-08T00:48:39.455Z,0
2017-07-08T00:49:48.565Z,0
2017-07-08T00:50:57.421Z,0
2017-07-08T00:52:06.278Z,0
2017-07-08T00:53:15.133Z,0
2017-07-08T00:54:23.987Z,0
2017-07-08T00:55:32.847Z,0
2017-07-08T00:56:41.705Z,0
2017-07-08T00:57:50.562Z,0
2017-07-08T00:58:59.417Z,0
2017-07-08T01:00:08.275Z,0
2017-07-08T01:01:17.468Z,0
2017-07-08T01:02:26.326Z,0
2017-07-08T01:03:35.179Z,0
2017-07-08T01:04:44.039Z,0
2017-07-08T01:05:52.893Z,0
2017-07-08T01:07:01.849Z,0
2017-07-08T01:08:10.705Z,0
2017-07-08T01:09:19.562Z,0
2017-07-08T01:10:28.417Z,0
2017-07-08T01:11:37.274Z,0
2017-07-08T01:12:46.382Z,0
2017-07-08T01:13:55.240Z,0
2017-07-08T01:15:04.097Z,0
2017-07-08T01:16:12.954Z,0
2017-07-08T01:17:21.812Z,0
2017-07-08T01:18:30.668Z,0
2017-07-08T01:19:39.524Z,0
2017-07-08T01:20:48.380Z,0
2017-07-08T01:21:57.237Z,0
2017-07-08T01:23:06.093Z,0
2017-07-08T01:24:14.949Z,0
2017-07-08T01:25:23.807Z,0
2017-07-08T01:26:32.664Z,0
2017-07-08T01:27:41.854Z,0
2017-07-08T01:28:50.712Z,0
2017-07-08T01:29:59.722Z,0
2017-07-08T01:31:08.911Z,0
2017-07-08T01:32:17.766Z,0
2017-07-08T01:33:26.624Z,0
2017-07-08T01:34:35.479Z,0
2017-07-08T01:35:44.385Z,0
2017-07-08T01:36:53.245Z,0
2017-07-08T01:38:02.436Z,0
2017-07-08T01:39:11.292Z,0
2017-07-08T01:40:20.151Z,0
2017-07-08T01:41:29.310Z,0
2017-07-08T01:42:38.166Z,0
2017-07-08T01:43:47.021Z,0
2017-07-08T01:44:55.876Z,0
2017-07-08T01:46:04.732Z,0
2017-07-08T01:47:13.737Z,0
2017-07-08T01:48:22.594Z,0
2017-07-08T01:49:31.451Z,0
2017-07-08T01:50:40.307Z,0
2017-07-08T01:51:49.163Z,0
2017-07-08T01:52:58.319Z,0
2017-07-08T01:54:07.175Z,0
2017-07-08T01:55:16.031Z,0
2017-07-08T01:56:24.887Z,0
2017-07-08T01:57:33.746Z,0
2017-07-08T01:58:42.651Z,0
2017-07-08T01:59:51.508Z,0
2017-07-08T02:01:00.364Z,0
2017-07-08T02:02:09.219Z,0
2017-07-08T02:03:18.076Z,0
2017-07-08T02:04:26.983Z,0
2017-07-08T02:05:35.841Z,0
2017-07-08T02:06:44.699Z,0
2017-07-08T02:07:53.555Z,0
2017-07-08T02:09:02.411Z,0
2017-07-08T02:10:11.270Z,0
2017-07-08T02:11:20.126Z,0
2017-07-08T02:12:28.984Z,0
2017-07-08T02:13:37.839Z,0
2017-07-08T02:14:46.694Z,0
2017-07-08T02:15:55.649Z,0
2017-07-08T02:17:04.507Z,0
2017-07-08T02:18:13.364Z,0
2017-07-08T02:19:22.222Z,0
2017-07-08T02:20:31.079Z,0
2017-07-08T02:21:40.238Z,0
2017-07-08T02:22:49.094Z,0
2017-07-08T02:23:57.950Z,0
2017-07-08T02:25:06.804Z,0
2017-07-08T02:26:15.658Z,0
2017-07-08T02:27:24.762Z,0
2017-07-08T02:28:33.619Z,0
2017-07-08T02:29:42.477Z,0
2017-07-08T02:30:51.331Z,0
2017-07-08T02:32:00.190Z,0
2017-07-08T02:33:09.348Z,0
2017-07-08T02:34:18.204Z,0
2017-07-08T02:35:27.059Z,0
2017-07-08T02:36:35.919Z,0
2017-07-08T02:37:44.776Z,0
2017-07-08T02:38:53.733Z,0
2017-07-08T02:40:02.588Z,0
2017-07-08T02:41:11.444Z,4
2017-07-08T02:42:20.300Z,4
2017-07-08T02:43:29.157Z,4
2017-07-08T02:44:38.163Z,0
2017-07-08T02:45:47.016Z,0
2017-07-08T02:46:55.876Z,4
2017-07-08T02:48:04.733Z,4
2017-07-08T02:49:13.594Z,4
2017-07-08T02:50:22.651Z,8
2017-07-08T02:51:31.509Z,8
2017-07-08T02:52:40.362Z,8
2017-07-08T02:53:49.219Z,4
2017-07-08T02:54:58.077Z,4
2017-07-08T02:56:07.420Z,8
2017-07-08T02:57:16.277Z,8
2017-07-08T02:58:25.134Z,8
2017-07-08T02:59:33.991Z,12
2017-07-08T03:00:42.847Z,12
2017-07-08T03:01:51.706Z,20
2017-07-08T03:03:00.564Z,16
2017-07-08T03:04:09.420Z,20
2017-07-08T03:05:18.274Z,28
2017-07-08T03:06:27.129Z,24
2017-07-08T03:07:36.287Z,28
2017-07-08T03:08:45.142Z,32
2017-07-08T03:09:53.999Z,36
2017-07-08T03:11:02.855Z,36
2017-07-08T03:12:11.710Z,36
2017-07-08T03:13:20.568Z,40
2017-07-08T03:14:29.425Z,40
2017-07-08T03:15:38.614Z,44
2017-07-08T03:16:47.470Z,44
2017-07-08T03:17:56.331Z,44
2017-07-08T03:19:05.389Z,48
2017-07-08T03:20:14.243Z,52
2017-07-08T03:21:23.097Z,44
2017-07-08T03:22:31.955Z,48
2017-07-08T03:23:40.811Z,52
2017-07-08T03:24:49.866Z,48
2017-07-08T03:25:58.723Z,48
2017-07-08T03:27:07.581Z,48
2017-07-08T03:28:16.435Z,48
2017-07-08T03:29:25.292Z,56
2017-07-08T03:30:34.599Z,64
2017-07-08T03:31:43.441Z,64
2017-07-08T03:32:52.296Z,72
2017-07-08T03:34:01.151Z,88
2017-07-08T03:35:10.007Z,104
2017-07-08T03:36:19.015Z,120
2017-07-08T03:37:27.870Z,128
2017-07-08T03:38:36.726Z,140
2017-07-08T03:39:45.582Z,144
2017-07-08T03:40:54.450Z,152
2017-07-08T03:42:03.456Z,176
2017-07-08T03:43:12.312Z,180
2017-07-08T03:44:21.172Z,180
2017-07-08T03:45:30.028Z,172
2017-07-08T03:46:38.884Z,176
2017-07-08T03:47:47.941Z,200
2017-07-08T03:48:56.799Z,220
2017-07-08T03:50:05.656Z,232
2017-07-08T03:51:14.513Z,248
2017-07-08T03:52:23.369Z,260
2017-07-08T03:53:32.341Z,276
2017-07-08T03:54:41.134Z,288
2017-07-08T03:55:49.993Z,280
2017-07-08T03:56:58.849Z,276
2017-07-08T03:58:07.706Z,276
2017-07-08T03:59:16.896Z,284
2017-07-08T04:00:25.754Z,300
2017-07-08T04:01:34.609Z,340
2017-07-08T04:02:43.466Z,380
2017-07-08T04:03:52.327Z,392
2017-07-08T04:05:01.229Z,368
2017-07-08T04:06:10.083Z,308
2017-07-08T04:07:18.940Z,272
2017-07-08T04:08:27.797Z,248
2017-07-08T04:09:36.652Z,240
2017-07-08T04:10:45.661Z,240
2017-07-08T04:11:54.519Z,204
2017-07-08T04:13:03.376Z,168
2017-07-08T04:14:12.233Z,144
2017-07-08T04:15:21.089Z,136
2017-07-08T04:16:30.580Z,132
2017-07-08T04:17:39.437Z,120
2017-07-08T04:18:48.294Z,124
2017-07-08T04:19:57.484Z,128
2017-07-08T04:21:06.341Z,132
2017-07-08T04:22:15.245Z,148
2017-07-08T04:23:24.103Z,168
2017-07-08T04:24:32.960Z,188
2017-07-08T04:25:41.817Z,220
2017-07-08T04:26:50.674Z,236
2017-07-08T04:27:59.581Z,248
2017-07-08T04:29:08.436Z,264
2017-07-08T04:30:17.296Z,296
2017-07-08T04:31:26.150Z,312
2017-07-08T04:32:35.008Z,344
2017-07-08T04:33:44.016Z,384
2017-07-08T04:34:52.872Z,416
2017-07-08T04:36:01.730Z,460
2017-07-08T04:37:10.584Z,420
2017-07-08T04:38:19.780Z,428
2017-07-08T04:39:28.687Z,392
2017-07-08T04:40:37.544Z,360
2017-07-08T04:41:46.399Z,340
2017-07-08T04:42:55.256Z,308
2017-07-08T04:44:04.112Z,268
2017-07-08T04:45:13.269Z,240
2017-07-08T04:46:22.124Z,244
2017-07-08T04:47:30.983Z,268
2017-07-08T04:48:39.838Z,312
2017-07-08T04:49:48.696Z,312
2017-07-08T04:50:57.603Z,292
2017-07-08T04:52:06.461Z,336
2017-07-08T04:53:15.317Z,388
2017-07-08T04:54:24.171Z,420
2017-07-08T04:55:33.029Z,428
2017-07-08T04:56:41.888Z,376
2017-07-08T04:57:50.746Z,360
2017-07-08T04:58:59.601Z,372
2017-07-08T05:00:08.463Z,376
2017-07-08T05:01:17.323Z,396
2017-07-08T05:02:26.229Z,412
2017-07-08T05:03:35.084Z,408
2017-07-08T05:04:43.941Z,444
2017-07-08T05:05:52.798Z,440
2017-07-08T05:07:01.654Z,480
2017-07-08T05:08:10.511Z,396
2017-07-08T05:09:19.366Z,568
2017-07-08T05:10:28.221Z,564
2017-07-08T05:11:37.081Z,500
2017-07-08T05:12:45.935Z,560
2017-07-08T05:13:54.790Z,576
2017-07-08T05:15:03.647Z,588
2017-07-08T05:16:12.502Z,708
2017-07-08T05:17:21.355Z,720
2017-07-08T05:18:30.211Z,768
2017-07-08T05:19:39.218Z,796
2017-07-08T05:20:48.075Z,740
2017-07-08T05:21:56.931Z,572
2017-07-08T05:23:05.786Z,492
2017-07-08T05:24:14.641Z,476
2017-07-08T05:25:23.595Z,508
2017-07-08T05:26:32.451Z,684
2017-07-08T05:27:41.306Z,664
2017-07-08T05:28:50.162Z,748
2017-07-08T05:29:59.019Z,724
2017-07-08T05:31:07.928Z,840
2017-07-08T05:32:16.780Z,848
2017-07-08T05:33:25.635Z,716
2017-07-08T05:34:34.492Z,760
2017-07-08T05:35:43.348Z,616
2017-07-08T05:36:52.505Z,652
2017-07-08T05:38:01.361Z,708
2017-07-08T05:39:10.220Z,744
2017-07-08T05:40:19.074Z,780
2017-07-08T05:41:27.930Z,796
2017-07-08T05:42:36.938Z,904
2017-07-08T05:43:45.795Z,1092
2017-07-08T05:44:54.653Z,1244
2017-07-08T05:46:03.512Z,1240
2017-07-08T05:47:12.368Z,1140
2017-07-08T05:48:21.279Z,976
2017-07-08T05:49:30.135Z,876
2017-07-08T05:50:39.338Z,844
2017-07-08T05:51:48.195Z,820
2017-07-08T05:52:57.054Z,780
2017-07-08T05:54:06.011Z,772
2017-07-08T05:55:14.868Z,728
2017-07-08T05:56:24.056Z,680
2017-07-08T05:57:32.915Z,712
2017-07-08T05:58:41.770Z,812
2017-07-08T05:59:50.627Z,916
2017-07-08T06:00:59.482Z,1000
2017-07-08T06:02:08.339Z,996
2017-07-08T06:03:17.195Z,1032
2017-07-08T06:04:26.053Z,1004
2017-07-08T06:05:35.007Z,972
2017-07-08T06:06:43.863Z,920
2017-07-08T06:07:52.722Z,844
2017-07-08T06:09:01.578Z,776
2017-07-08T06:10:10.438Z,768
2017-07-08T06:11:19.444Z,796
2017-07-08T06:12:28.300Z,844
2017-07-08T06:13:37.158Z,896
2017-07-08T06:14:46.014Z,1016
2017-07-08T06:15:54.869Z,1216
2017-07-08T06:17:04.025Z,1356
2017-07-08T06:18:12.883Z,1336
2017-07-08T06:19:21.739Z,1360
2017-07-08T06:20:30.594Z,1504
2017-07-08T06:21:39.450Z,1612
2017-07-08T06:22:48.606Z,1456
2017-07-08T06:23:57.461Z,1244
2017-07-08T06:25:06.317Z,1264
2017-07-08T06:26:15.508Z,1328
2017-07-08T06:27:24.362Z,1420
2017-07-08T06:28:33.220Z,1424
2017-07-08T06:29:42.076Z,1376
2017-07-08T06:30:50.932Z,1296
2017-07-08T06:31:59.790Z,1304
2017-07-08T06:33:08.647Z,1292
2017-07-08T06:34:17.553Z,1280
2017-07-08T06:35:26.411Z,1280
2017-07-08T06:36:35.267Z,1372
2017-07-08T06:37:44.126Z,1492
2017-07-08T06:38:52.981Z,1764
2017-07-08T06:40:02.223Z,1884
2017-07-08T06:41:11.080Z,2024
2017-07-08T06:42:19.937Z,2284
2017-07-08T06:43:28.791Z,2252
2017-07-08T06:44:37.647Z,2340
2017-07-08T06:45:46.655Z,2448
2017-07-08T06:46:55.510Z,2408
2017-07-08T06:48:04.370Z,2396
2017-07-08T06:49:13.228Z,2236
2017-07-08T06:50:22.092Z,2264
2017-07-08T06:51:31.099Z,2448
2017-07-08T06:52:39.955Z,2704
2017-07-08T06:53:48.812Z,2832
2017-07-08T06:54:57.668Z,2804
2017-07-08T06:56:06.524Z,2604
2017-07-08T06:57:15.433Z,2660
2017-07-08T06:58:24.288Z,2884
2017-07-08T06:59:33.144Z,2772
2017-07-08T07:00:42.003Z,2504
2017-07-08T07:01:50.859Z,2676
2017-07-08T07:02:59.822Z,3056
2017-07-08T07:04:08.689Z,3340
2017-07-08T07:05:17.532Z,3576
2017-07-08T07:06:26.389Z,3804
2017-07-08T07:07:35.247Z,4212
2017-07-08T07:08:44.305Z,4280
2017-07-08T07:09:53.163Z,3976
2017-07-08T07:11:02.019Z,3544
2017-07-08T07:12:10.878Z,3604
2017-07-08T07:13:19.735Z,3936
2017-07-08T07:14:28.977Z,3940
2017-07-08T07:15:37.837Z,3816
2017-07-08T07:16:46.694Z,3944
2017-07-08T07:17:55.552Z,4100
2017-07-08T07:19:04.410Z,4332
2017-07-08T07:20:13.419Z,4376
2017-07-08T07:21:22.276Z,4420
2017-07-08T07:22:31.132Z,4440
2017-07-08T07:23:39.991Z,4464
2017-07-08T07:24:48.849Z,4180
2017-07-08T07:25:57.956Z,4472
2017-07-08T07:27:06.812Z,4284
2017-07-08T07:28:15.671Z,3996
2017-07-08T07:29:24.528Z,3708
2017-07-08T07:30:33.386Z,3412
2017-07-08T07:31:42.293Z,3040
2017-07-08T07:32:51.149Z,2532
2017-07-08T07:34:00.007Z,2744
2017-07-08T07:35:08.863Z,3476
2017-07-08T07:36:17.725Z,3920
2017-07-08T07:37:26.682Z,4584
2017-07-08T07:38:35.541Z,4900
2017-07-08T07:39:44.398Z,5176
2017-07-08T07:40:53.258Z,5324
2017-07-08T07:42:02.116Z,5348
2017-07-08T07:43:11.124Z,5292
2017-07-08T07:44:20.316Z,5264
2017-07-08T07:45:29.175Z,5344
2017-07-08T07:46:38.030Z,5436
2017-07-08T07:47:46.890Z,5320
2017-07-08T07:48:55.798Z,5164
2017-07-08T07:50:04.659Z,4932
2017-07-08T07:51:13.515Z,4660
2017-07-08T07:52:22.375Z,4952
2017-07-08T07:53:31.235Z,4844
2017-07-08T07:54:40.144Z,4632
2017-07-08T07:55:49.002Z,4412
2017-07-08T07:56:57.861Z,4204
2017-07-08T07:58:06.717Z,3652
2017-07-08T07:59:15.575Z,2432
2017-07-08T08:00:24.486Z,1832
2017-07-08T08:01:33.346Z,1564
2017-07-08T08:02:42.205Z,1572
2017-07-08T08:03:51.066Z,1512
2017-07-08T08:04:59.925Z,1548
2017-07-08T08:06:08.932Z,1524
2017-07-08T08:07:17.793Z,1512
2017-07-08T08:08:26.652Z,1532
2017-07-08T08:09:35.509Z,1516
2017-07-08T08:10:44.369Z,1488
2017-07-08T08:11:53.277Z,1492
2017-07-08T08:13:02.133Z,1508
2017-07-08T08:14:10.992Z,1548
2017-07-08T08:15:20.184Z,1508
2017-07-08T08:16:29.041Z,1488
2017-07-08T08:17:37.950Z,1512
2017-07-08T08:18:46.809Z,1504
2017-07-08T08:19:55.670Z,1504
2017-07-08T08:21:04.527Z,1508
2017-07-08T08:22:13.378Z,1492
2017-07-08T08:23:22.719Z,1488
2017-07-08T08:24:31.908Z,1468
2017-07-08T08:25:40.766Z,1464
2017-07-08T08:26:49.961Z,1504
2017-07-08T08:27:58.824Z,1460
2017-07-08T08:29:07.729Z,1484
2017-07-08T08:30:16.585Z,1516
2017-07-08T08:31:25.789Z,1548
2017-07-08T08:32:34.648Z,1540
2017-07-08T08:33:43.508Z,1548
2017-07-08T08:34:52.513Z,1560
2017-07-08T08:36:01.373Z,1568
2017-07-08T08:37:10.233Z,1528
2017-07-08T08:38:19.091Z,1504
2017-07-08T08:39:27.952Z,1508
2017-07-08T08:40:36.906Z,1512
2017-07-08T08:41:45.768Z,1552
2017-07-08T08:42:54.624Z,1596
2017-07-08T08:44:03.484Z,1596
2017-07-08T08:45:12.339Z,1588
2017-07-08T08:46:21.497Z,1608
2017-07-08T08:47:30.356Z,1628
2017-07-08T08:48:39.217Z,1632
2017-07-08T08:49:48.074Z,1652
2017-07-08T08:50:56.930Z,1748
2017-07-08T08:52:05.837Z,1788
2017-07-08T08:53:14.696Z,1760
2017-07-08T08:54:23.555Z,1864
2017-07-08T08:55:32.417Z,1980
2017-07-08T08:56:41.274Z,1756
2017-07-08T08:57:50.233Z,1708
2017-07-08T08:58:59.090Z,1700
2017-07-08T09:00:07.961Z,1704
2017-07-08T09:01:16.820Z,1760
2017-07-08T09:02:25.680Z,1768
2017-07-08T09:03:34.540Z,1784
2017-07-08T09:04:43.403Z,1788
2017-07-08T09:05:52.264Z,1812
2017-07-08T09:07:01.123Z,1852
2017-07-08T09:08:09.980Z,1952
2017-07-08T09:09:19.141Z,1964
2017-07-08T09:10:27.999Z,2004
2017-07-08T09:11:36.857Z,1964
2017-07-08T09:12:45.717Z,2316
2017-07-08T09:13:54.576Z,2312
2017-07-08T09:15:03.484Z,2264
2017-07-08T09:16:12.340Z,2500
2017-07-08T09:17:21.197Z,3084
2017-07-08T09:18:30.056Z,3844
2017-07-08T09:19:38.916Z,4236
2017-07-08T09:20:48.261Z,3888
2017-07-08T09:21:57.118Z,3328
2017-07-08T09:23:05.980Z,4052
2017-07-08T09:24:14.841Z,4244
2017-07-08T09:25:23.701Z,4500
2017-07-08T09:26:32.713Z,4780
2017-07-08T09:27:41.574Z,4448
2017-07-08T09:28:50.434Z,3904
2017-07-08T09:29:59.296Z,3928
2017-07-08T09:31:08.158Z,3812
2017-07-08T09:32:17.066Z,3552
2017-07-08T09:33:25.929Z,4508
2017-07-08T09:34:34.791Z,5824
2017-07-08T09:35:43.652Z,6728
2017-07-08T09:36:52.513Z,4984
2017-07-08T09:38:01.622Z,3888
2017-07-08T09:39:10.484Z,4092
2017-07-08T09:40:19.354Z,4172
2017-07-08T09:41:28.214Z,4484
2017-07-08T09:42:37.074Z,4052
2017-07-08T09:43:46.086Z,3708
2017-07-08T09:44:54.945Z,2964
2017-07-08T09:46:03.808Z,3052
2017-07-08T09:47:12.670Z,3228
2017-07-08T09:48:21.529Z,2860
2017-07-08T09:49:30.491Z,2724
2017-07-08T09:50:39.351Z,2772
2017-07-08T09:51:48.212Z,2892
2017-07-08T09:52:57.074Z,2996
2017-07-08T09:54:05.933Z,3300
2017-07-08T09:55:15.094Z,3656
2017-07-08T09:56:23.954Z,3940
2017-07-08T09:57:32.813Z,4328
2017-07-08T09:58:41.674Z,4224
2017-07-08T09:59:50.536Z,3644
2017-07-08T10:00:59.698Z,3524
2017-07-08T10:02:08.557Z,3316
2017-07-08T10:03:17.418Z,3324
2017-07-08T10:04:26.279Z,3296
2017-07-08T10:05:35.140Z,3468
2017-07-08T10:06:43.999Z,3704
2017-07-08T10:07:52.862Z,4044
2017-07-08T10:09:01.722Z,4592
2017-07-08T10:10:10.583Z,5544
2017-07-08T10:11:19.444Z,7032
2017-07-08T10:12:28.354Z,6360
2017-07-08T10:13:37.550Z,5368
2017-07-08T10:14:46.410Z,5056
2017-07-08T10:15:55.273Z,5132
2017-07-08T10:17:04.136Z,5656
2017-07-08T10:18:13.148Z,6348
2017-07-08T10:19:22.009Z,5784
2017-07-08T10:20:30.869Z,5836
2017-07-08T10:21:39.733Z,6780
2017-07-08T10:22:48.594Z,8676
2017-07-08T10:23:57.658Z,8164
2017-07-08T10:25:06.521Z,7224
2017-07-08T10:26:15.381Z,7672
2017-07-08T10:27:24.244Z,8712
2017-07-08T10:28:33.105Z,7844
2017-07-08T10:29:42.069Z,6176
2017-07-08T10:30:50.934Z,5304
2017-07-08T10:31:59.794Z,4760
2017-07-08T10:33:08.665Z,4456
2017-07-08T10:34:17.858Z,4452
2017-07-08T10:35:26.820Z,4788
2017-07-08T10:36:35.682Z,5552
2017-07-08T10:37:44.542Z,5432
2017-07-08T10:38:53.399Z,6672
2017-07-08T10:40:02.263Z,8412
2017-07-08T10:41:11.378Z,7884
2017-07-08T10:42:20.241Z,6332
2017-07-08T10:43:29.104Z,4828
2017-07-08T10:44:37.967Z,3724
2017-07-08T10:45:46.830Z,3044
2017-07-08T10:46:55.993Z,2756
2017-07-08T10:48:04.857Z,2728
2017-07-08T10:49:13.718Z,2952
2017-07-08T10:50:22.577Z,3448
2017-07-08T10:51:31.439Z,4036
2017-07-08T10:52:40.447Z,4512
2017-07-08T10:53:49.313Z,4508
2017-07-08T10:54:58.173Z,4928
2017-07-08T10:56:07.037Z,4656
2017-07-08T10:57:15.897Z,4604
2017-07-08T10:58:25.008Z,4720
2017-07-08T10:59:33.868Z,4696
2017-07-08T11:00:42.729Z,4372
2017-07-08T11:01:51.590Z,3544
2017-07-08T11:03:00.448Z,2556
2017-07-08T11:04:09.462Z,2060
2017-07-08T11:05:18.319Z,1732
2017-07-08T11:06:27.182Z,1492
2017-07-08T11:07:36.046Z,1272
2017-07-08T11:08:44.908Z,1148
2017-07-08T11:09:53.969Z,1092
2017-07-08T11:11:03.162Z,1232
2017-07-08T11:12:12.023Z,1272
2017-07-08T11:13:20.883Z,1600
2017-07-08T11:14:29.746Z,3204
2017-07-08T11:15:38.915Z,5708
2017-07-08T11:16:47.769Z,6972
2017-07-08T11:17:56.625Z,6040
2017-07-08T11:19:05.485Z,5824
2017-07-08T11:20:14.344Z,5640
2017-07-08T11:21:23.203Z,5136
2017-07-08T11:22:32.062Z,4804
2017-07-08T11:23:40.921Z,4844
2017-07-08T11:24:49.783Z,4624
2017-07-08T11:25:58.642Z,3892
2017-07-08T11:27:07.503Z,3748
2017-07-08T11:28:16.362Z,3616
2017-07-08T11:29:25.221Z,3716
2017-07-08T11:30:34.079Z,4096
2017-07-08T11:31:42.942Z,4068
2017-07-08T11:32:51.798Z,4268
2017-07-08T11:34:00.657Z,4364
2017-07-08T11:35:09.517Z,4844
2017-07-08T11:36:18.371Z,5220
2017-07-08T11:37:27.230Z,5004
2017-07-08T11:38:36.140Z,4504
2017-07-08T11:39:44.998Z,4156
2017-07-08T11:40:53.859Z,4208
2017-07-08T11:42:02.720Z,3920
2017-07-08T11:43:11.923Z,3736
2017-07-08T11:44:20.830Z,3836
2017-07-08T11:45:29.690Z,3520
2017-07-08T11:46:38.547Z,3508
2017-07-08T11:47:47.409Z,3912
2017-07-08T11:48:56.270Z,4108
2017-07-08T11:50:05.562Z,4212
2017-07-08T11:51:14.750Z,4516
2017-07-08T11:52:23.609Z,4760
2017-07-08T11:53:32.467Z,5232
2017-07-08T11:54:41.664Z,5740
2017-07-08T11:55:50.622Z,5820
2017-07-08T11:56:59.480Z,6152
2017-07-08T11:58:08.341Z,5760
2017-07-08T11:59:17.199Z,5512
2017-07-08T12:00:26.062Z,5180
2017-07-08T12:01:35.220Z,5176
2017-07-08T12:02:44.078Z,5324
2017-07-08T12:03:52.935Z,5884
2017-07-08T12:05:01.795Z,6612
2017-07-08T12:06:10.652Z,6320
2017-07-08T12:07:19.811Z,4952
2017-07-08T12:08:28.670Z,4392
2017-07-08T12:09:37.529Z,9004
2017-07-08T12:10:46.389Z,8252
2017-07-08T12:11:55.248Z,10276
2017-07-08T12:13:04.158Z,9260
2017-07-08T12:14:13.017Z,7972
2017-07-08T12:15:21.876Z,7360
2017-07-08T12:16:30.735Z,4824
2017-07-08T12:17:39.597Z,2156
2017-07-08T12:18:48.555Z,1084
2017-07-08T12:19:57.414Z,1136
2017-07-08T12:21:06.273Z,1396
2017-07-08T12:22:15.132Z,1644
2017-07-08T12:23:23.989Z,2492
2017-07-08T12:24:32.898Z,3152
2017-07-08T12:25:41.757Z,2292
2017-07-08T12:26:50.617Z,2796
2017-07-08T12:27:59.475Z,3104
2017-07-08T12:29:08.335Z,2424
2017-07-08T12:30:17.243Z,2976
2017-07-08T12:31:26.104Z,3008
2017-07-08T12:32:34.961Z,4040
2017-07-08T12:33:43.822Z,3172
2017-07-08T12:34:52.681Z,2932
2017-07-08T12:36:01.591Z,3540
2017-07-08T12:37:10.450Z,1848
2017-07-08T12:38:19.308Z,1816
2017-07-08T12:39:28.166Z,2188
2017-07-08T12:40:37.025Z,1672
2017-07-08T12:41:46.185Z,2520
2017-07-08T12:42:55.042Z,2300
2017-07-08T12:44:03.901Z,2496
2017-07-08T12:45:12.756Z,2084
2017-07-08T12:46:21.612Z,1800
2017-07-08T12:47:30.619Z,1688
2017-07-08T12:48:39.476Z,1884
2017-07-08T12:49:48.334Z,2220
2017-07-08T12:50:57.199Z,2240
2017-07-08T12:52:06.053Z,2124
2017-07-08T12:53:15.061Z,2416
2017-07-08T12:54:23.918Z,2544
2017-07-08T12:55:32.778Z,2712
2017-07-08T12:56:41.635Z,3600
2017-07-08T12:57:50.494Z,4524
2017-07-08T12:58:59.502Z,4544
2017-07-08T13:00:08.357Z,4028
2017-07-08T13:01:17.215Z,3408
2017-07-08T13:02:26.073Z,2984
2017-07-08T13:03:34.929Z,2968
2017-07-08T13:04:43.790Z,3688
2017-07-08T13:05:52.646Z,4148
2017-07-08T13:07:01.506Z,4016
2017-07-08T13:08:10.363Z,4868
2017-07-08T13:09:19.223Z,7700
2017-07-08T13:10:28.080Z,12860
2017-07-08T13:11:36.940Z,43008
2017-07-08T13:12:45.801Z,42880
2017-07-08T13:13:54.659Z,43200
2017-07-08T13:15:03.516Z,14548
2017-07-08T13:16:12.526Z,26912
2017-07-08T13:17:21.384Z,12676
2017-07-08T13:18:30.246Z,10548
2017-07-08T13:19:39.103Z,13272
2017-07-08T13:20:47.966Z,15384
2017-07-08T13:21:57.077Z,17024
2017-07-08T13:23:06.266Z,13124
2017-07-08T13:24:15.129Z,13596
2017-07-08T13:25:24.322Z,35200
2017-07-08T13:26:33.183Z,13900
2017-07-08T13:27:42.096Z,11284
2017-07-08T13:28:50.957Z,10000
2017-07-08T13:29:59.819Z,10968
2017-07-08T13:31:08.681Z,12536
2017-07-08T13:32:17.546Z,16032
2017-07-08T13:33:26.559Z,28352
2017-07-08T13:34:35.418Z,30528
2017-07-08T13:35:44.281Z,31072
2017-07-08T13:36:53.147Z,25152
2017-07-08T13:38:02.009Z,35136
2017-07-08T13:39:11.222Z,29536
2017-07-08T13:40:20.082Z,87328
2017-07-08T13:41:28.946Z,88608
2017-07-08T13:42:37.810Z,25568
2017-07-08T13:43:46.675Z,29568
2017-07-08T13:44:55.640Z,13576
2017-07-08T13:46:04.501Z,20800
2017-07-08T13:47:13.368Z,13036
2017-07-08T13:48:22.232Z,12764
2017-07-08T13:49:31.436Z,9176
2017-07-08T13:50:40.600Z,7560
2017-07-08T13:51:49.465Z,8440
2017-07-08T13:52:58.328Z,8632
2017-07-08T13:54:07.191Z,7432
2017-07-08T13:55:16.053Z,6620
2017-07-08T13:56:25.017Z,6500
2017-07-08T13:57:33.882Z,7480
2017-07-08T13:58:42.746Z,8372
2017-07-08T13:59:51.608Z,8256
2017-07-08T14:01:00.809Z,8472
2017-07-08T14:02:09.973Z,9904
2017-07-08T14:03:18.836Z,12316
2017-07-08T14:04:27.697Z,19072
2017-07-08T14:05:36.557Z,24544
2017-07-08T14:06:45.419Z,27072
2017-07-08T14:07:54.335Z,29568
2017-07-08T14:09:03.196Z,24064
2017-07-08T14:10:12.060Z,14876
2017-07-08T14:11:20.923Z,11500
2017-07-08T14:12:29.786Z,9092
2017-07-08T14:13:38.798Z,10056
2017-07-08T14:14:47.663Z,12892
2017-07-08T14:15:56.522Z,45024
2017-07-08T14:17:05.382Z,72320
2017-07-08T14:18:14.250Z,67904
2017-07-08T14:19:23.316Z,66400
2017-07-08T14:20:32.183Z,21152
2017-07-08T14:21:41.051Z,32704
2017-07-08T14:22:49.919Z,67520
2017-07-08T14:23:58.784Z,41504
2017-07-08T14:25:07.750Z,43744
2017-07-08T14:26:16.951Z,13304
2017-07-08T14:27:25.818Z,19968
2017-07-08T14:28:34.687Z,36512
2017-07-08T14:29:43.555Z,11336
2017-07-08T14:30:52.626Z,17088
2017-07-08T14:32:01.494Z,16832
2017-07-08T14:33:10.360Z,21120
2017-07-08T14:34:19.225Z,30112
2017-07-08T14:35:28.094Z,72832
2017-07-08T14:36:37.014Z,63392
2017-07-08T14:37:45.879Z,37536
2017-07-08T14:38:54.748Z,11936
2017-07-08T14:40:03.617Z,34112
2017-07-08T14:41:12.485Z,28480
2017-07-08T14:42:21.741Z,11340
2017-07-08T14:43:30.609Z,8692
2017-07-08T14:44:39.479Z,7136
2017-07-08T14:45:48.347Z,8068
2017-07-08T14:46:57.215Z,7800
2017-07-08T14:48:06.132Z,7592
2017-07-08T14:49:14.998Z,7860
2017-07-08T14:50:23.865Z,14344
2017-07-08T14:51:32.732Z,7748
2017-07-08T14:52:41.933Z,6548
2017-07-08T14:53:51.431Z,5268
2017-07-08T14:55:00.297Z,5824
2017-07-08T14:56:09.164Z,6344
2017-07-08T14:57:18.370Z,6952
2017-07-08T14:58:27.232Z,7108
2017-07-08T14:59:36.298Z,6268
2017-07-08T15:00:45.162Z,5296
2017-07-08T15:01:54.028Z,5804
2017-07-08T15:03:03.237Z,6440
2017-07-08T15:04:12.105Z,6548
2017-07-08T15:05:21.018Z,5200
2017-07-08T15:06:29.877Z,4884
2017-07-08T15:07:38.741Z,7240
2017-07-08T15:08:47.605Z,7656
2017-07-08T15:09:56.472Z,8788
2017-07-08T15:11:05.485Z,8452
2017-07-08T15:12:14.348Z,6476
2017-07-08T15:13:23.213Z,7920
2017-07-08T15:14:32.417Z,10688
2017-07-08T15:15:41.279Z,11916
2017-07-08T15:16:50.192Z,11816
2017-07-08T15:17:59.056Z,12064
2017-07-08T15:19:07.919Z,10836
2017-07-08T15:20:16.780Z,12544
2017-07-08T15:21:25.645Z,10848
2017-07-08T15:22:34.860Z,9876
2017-07-08T15:23:43.721Z,8856
2017-07-08T15:24:52.585Z,7896
2017-07-08T15:26:01.450Z,7952
2017-07-08T15:27:10.315Z,7668
2017-07-08T15:28:19.325Z,6088
2017-07-08T15:29:28.190Z,2720
2017-07-08T15:30:37.054Z,2572
2017-07-08T15:31:45.922Z,2476
2017-07-08T15:32:54.783Z,1772
2017-07-08T15:34:03.695Z,1980
2017-07-08T15:35:12.560Z,1400
2017-07-08T15:36:21.420Z,1468
2017-07-08T15:37:30.337Z,2348
2017-07-08T15:38:39.146Z,3200